createdAt,value
2022-09-28T00:01:08.162Z,99123.59
2022-09-28T00:06:12.630Z,99101.47
2022-09-28T00:11:15.348Z,99113.50
2022-09-28T00:16:19.572Z,99099.00
2022-09-28T00:21:26.799Z,99105.69
2022-09-28T00:26:29.980Z,99099.69
2022-09-28T00:31:33.351Z,99097.91
2022-09-28T00:36:34.944Z,99079.91
2022-09-28T00:41:36.210Z,99093.59
2022-09-28T00:46:37.543Z,99094.44
2022-09-28T00:51:41.970Z,99087.63
2022-09-28T00:56:47.046Z,99069.78
2022-09-28T01:01:49.293Z,99062.13
2022-09-28T01:06:51.228Z,99073.97
2022-09-28T01:11:52.932Z,99067.25
2022-09-28T01:17:08.554Z,99068.97
2022-09-28T01:22:43.340Z,99074.22
2022-09-28T01:27:49.521Z,99069.16
2022-09-28T01:32:54.716Z,99055.63
2022-09-28T01:38:19.805Z,99074.22
2022-09-28T01:43:25.806Z,99048.78
2022-09-28T01:48:36.210Z,99070.78
2022-09-28T01:53:43.296Z,99052.94
2022-09-28T01:59:00.215Z,99066.47
2022-09-28T02:04:14.670Z,99049.44
2022-09-28T02:09:28.457Z,99070.63
2022-09-28T02:14:34.754Z,99077.50
2022-09-28T02:19:36.480Z,99055.31
2022-09-28T02:24:41.047Z,99059.63
2022-09-28T02:29:42.542Z,99068.19
2022-09-28T02:34:44.030Z,99078.38
2022-09-28T02:39:45.356Z,99072.47
2022-09-28T02:45:10.072Z,99086.16
2022-09-28T02:50:36.775Z,99080.19
2022-09-28T02:55:43.613Z,99076.78
2022-09-28T03:00:56.116Z,99076.78
2022-09-28T03:06:03.252Z,99080.28
2022-09-28T03:11:13.817Z,99075.13
2022-09-28T03:16:17.708Z,99072.63
2022-09-28T03:21:19.132Z,99071.78
2022-09-28T03:26:20.502Z,99082.94
2022-09-28T03:31:21.934Z,99077.78
2022-09-28T03:36:23.483Z,99078.69
2022-09-28T03:41:25.231Z,99079.56
2022-09-28T03:46:27.300Z,99069.38
2022-09-28T03:51:28.672Z,99074.41
2022-09-28T03:56:30.167Z,99082.13
2022-09-28T04:01:31.640Z,99083.81
2022-09-28T04:06:33.068Z,99069.44
2022-09-28T04:11:59.450Z,99088.94
2022-09-28T04:16:56.227Z,99085.53
2022-09-28T04:21:57.569Z,99082.09
2022-09-28T04:27:18.879Z,99072.00
2022-09-28T04:32:20.272Z,99095.03
2022-09-28T04:37:21.618Z,99094.13
2022-09-28T04:42:22.970Z,99079.53
2022-09-28T04:47:25.053Z,99091.53
2022-09-28T04:52:27.180Z,99082.94
2022-09-28T04:57:28.508Z,99089.84
2022-09-28T05:02:29.990Z,99078.69
2022-09-28T05:07:31.357Z,99082.94
2022-09-28T05:12:32.829Z,99084.66
2022-09-28T05:17:34.422Z,99084.63
2022-09-28T05:22:35.714Z,99081.19
2022-09-28T05:27:37.025Z,99085.38
2022-09-28T05:32:42.107Z,99078.66
2022-09-28T05:37:43.775Z,99058.94
2022-09-28T05:42:45.095Z,99076.88
2022-09-28T05:47:46.412Z,99060.75
2022-09-28T05:52:50.050Z,99082.84
2022-09-28T05:57:51.390Z,99076.88
2022-09-28T06:03:12.922Z,99068.44
2022-09-28T06:08:14.279Z,99092.25
2022-09-28T06:13:15.653Z,99094.72
2022-09-28T06:18:16.994Z,99084.63
2022-09-28T06:23:18.393Z,99109.25
2022-09-28T06:28:19.743Z,99065.91
2022-09-28T06:33:21.866Z,99118.63
2022-09-28T06:38:23.187Z,99130.66
2022-09-28T06:43:24.558Z,99142.63
2022-09-28T06:48:26.136Z,99135.84
2022-09-28T06:53:28.424Z,99142.53
2022-09-28T06:58:30.901Z,99145.09
2022-09-28T07:03:32.260Z,99120.38
2022-09-28T07:08:33.600Z,99147.59
2022-09-28T07:13:49.919Z,99144.78
2022-09-28T07:18:51.981Z,99138.97
2022-09-28T07:23:54.493Z,99151.72
2022-09-28T07:28:56.040Z,99163.56
2022-09-28T07:33:58.568Z,99172.97
2022-09-28T07:38:59.890Z,99183.22
2022-09-28T07:44:07.783Z,99170.47
2022-09-28T07:49:12.226Z,99190.75
2022-09-28T07:54:13.873Z,99201.00
2022-09-28T07:59:18.208Z,99202.69
2022-09-28T08:04:20.464Z,99204.31
2022-09-28T08:09:21.789Z,99201.81
2022-09-28T08:14:23.591Z,99206.03
2022-09-28T08:19:24.936Z,99207.75
2022-09-28T08:24:30.911Z,99205.97
2022-09-28T08:29:32.331Z,99217.78
2022-09-28T08:34:38.927Z,99237.22
2022-09-28T08:39:40.425Z,99201.44
2022-09-28T08:44:44.735Z,99237.88
2022-09-28T08:49:49.923Z,99238.59
2022-09-28T08:54:56.144Z,99249.56
2022-09-28T09:00:00.556Z,99257.94
2022-09-28T09:05:13.327Z,99265.38
2022-09-28T09:10:42.542Z,99245.59
2022-09-28T09:15:55.901Z,99253.22
2022-09-28T09:20:59.577Z,99252.84
2022-09-28T09:26:18.898Z,99267.72
2022-09-28T09:31:33.138Z,99270.69
2022-09-28T09:36:47.279Z,99256.16
2022-09-28T09:42:08.877Z,99267.88
2022-09-28T09:47:14.769Z,99277.13
2022-09-28T09:52:26.192Z,99279.41
2022-09-28T09:57:35.944Z,99277.38
2022-09-28T10:02:39.398Z,99282.91
2022-09-28T10:07:50.753Z,99271.47
2022-09-28T10:12:52.900Z,99267.19
2022-09-28T10:17:56.815Z,99287.50
2022-09-28T10:23:01.952Z,99278.03
2022-09-28T10:28:06.233Z,99288.09
2022-09-28T10:33:28.785Z,99284.47
2022-09-28T10:38:31.272Z,99290.47
2022-09-28T10:43:38.668Z,99294.78
2022-09-28T10:48:59.879Z,99286.06
2022-09-28T10:54:02.591Z,99293.56
2022-09-28T10:59:28.619Z,99293.34
2022-09-28T11:04:39.924Z,99291.66
2022-09-28T11:09:45.783Z,99287.91
2022-09-28T11:14:55.576Z,99295.63
2022-09-28T11:19:59.755Z,99295.59
2022-09-28T11:25:16.084Z,99294.78
2022-09-28T11:30:30.956Z,99299.13
2022-09-28T11:36:03.832Z,99293.97
2022-09-28T11:41:23.720Z,99298.19
2022-09-28T11:46:34.568Z,99284.13
2022-09-28T11:51:39.712Z,99297.03
2022-09-28T11:56:48.557Z,99291.56
2022-09-28T12:01:55.492Z,99282.91
2022-09-28T12:07:03.696Z,99274.06
2022-09-28T12:12:20.846Z,99278.13
2022-09-28T12:17:28.531Z,99295.50
2022-09-28T12:22:34.749Z,99289.66
2022-09-28T12:27:51.400Z,99295.22
2022-09-28T12:32:59.460Z,99274.63
2022-09-28T12:38:12.821Z,99285.56
2022-09-28T12:43:29.003Z,99290.47
2022-09-28T12:49:15.874Z,99282.63
2022-09-28T12:54:28.447Z,99279.56
2022-09-28T12:59:39.562Z,99271.09
2022-09-28T13:04:55.015Z,99276.13
2022-09-28T13:10:33.082Z,99278.59
2022-09-28T13:15:43.524Z,99269.22
2022-09-28T13:21:05.508Z,99276.47
2022-09-28T13:26:17.220Z,99270.34
2022-09-28T13:31:30.895Z,99250.31
2022-09-28T13:36:36.630Z,99264.44
2022-09-28T13:41:40.367Z,99272.28
2022-09-28T13:47:20.882Z,99267.91
2022-09-28T13:52:44.370Z,99287.19
2022-09-28T13:57:52.680Z,99289.25
2022-09-28T14:03:04.028Z,99307.50
2022-09-28T14:08:08.213Z,99307.78
2022-09-28T14:13:10.355Z,99300.38
2022-09-28T14:18:33.606Z,99280.28
2022-09-28T14:23:47.638Z,99308.91
2022-09-28T14:29:10.184Z,99279.22
2022-09-28T14:34:32.736Z,99291.34
2022-09-28T14:39:55.588Z,99288.34
2022-09-28T14:45:06.301Z,99318.81
2022-09-28T14:50:20.361Z,99316.41
2022-09-28T14:55:31.031Z,99321.81
2022-09-28T15:00:32.870Z,99331.47
2022-09-28T15:05:48.170Z,99271.34
2022-09-28T15:10:50.459Z,99321.50
2022-09-28T15:15:59.329Z,99322.53
2022-09-28T15:21:01.754Z,99321.84
2022-09-28T15:26:07.613Z,99310.91
2022-09-28T15:31:18.612Z,99328.91
2022-09-28T15:36:26.484Z,99329.03
2022-09-28T15:41:28.635Z,99318.28
2022-09-28T15:46:30.083Z,99332.22
2022-09-28T15:51:44.252Z,99340.03
2022-09-28T15:57:02.336Z,99356.31
2022-09-28T16:02:19.094Z,99352.25
2022-09-28T16:07:35.279Z,99370.22
2022-09-28T16:12:36.628Z,99372.06
2022-09-28T16:17:38.357Z,99373.09
2022-09-28T16:22:42.811Z,99375.81
2022-09-28T16:27:45.649Z,99378.41
2022-09-28T16:32:52.962Z,99385.50
2022-09-28T16:38:11.693Z,99398.59
2022-09-28T16:43:34.889Z,99391.94
2022-09-28T16:48:40.417Z,99414.41
2022-09-28T16:54:00.518Z,99399.13
2022-09-28T16:59:02.306Z,99400.94
2022-09-28T17:04:03.926Z,99414.66
2022-09-28T17:09:07.005Z,99405.56
2022-09-28T17:14:08.822Z,99408.25
2022-09-28T17:19:19.302Z,99423.13
2022-09-28T17:24:20.941Z,99428.38
2022-09-28T17:29:23.567Z,99426.19
2022-09-28T17:34:24.949Z,99433.41
2022-09-28T17:39:26.392Z,99430.06
2022-09-28T17:44:27.735Z,99443.03
2022-09-28T17:49:29.283Z,99435.56
2022-09-28T17:54:30.533Z,99432.31
2022-09-28T17:59:31.847Z,99427.19
2022-09-28T18:04:51.396Z,99428.16
2022-09-28T18:09:56.574Z,99420.69
2022-09-28T18:14:58.014Z,99423.28
2022-09-28T18:19:59.339Z,99424.31
2022-09-28T18:25:00.693Z,99425.94
2022-09-28T18:30:02.286Z,99429.38
2022-09-28T18:35:04.192Z,99427.19
2022-09-28T18:40:06.382Z,99434.06
2022-09-28T18:45:11.099Z,99437.72
2022-09-28T18:50:15.232Z,99444.56
2022-09-28T18:55:16.765Z,99446.44
2022-09-28T19:00:18.056Z,99457.72
2022-09-28T19:05:19.404Z,99456.34
2022-09-28T19:10:20.809Z,99454.59
2022-09-28T19:15:22.688Z,99463.19
2022-09-28T19:20:23.992Z,99459.22
2022-09-28T19:25:25.511Z,99467.06
2022-09-28T19:30:26.792Z,99487.81
2022-09-28T19:35:28.122Z,99479.22
2022-09-28T19:40:29.485Z,99481.03
2022-09-28T19:45:30.818Z,99478.44
2022-09-28T19:50:32.841Z,99488.84
2022-09-28T19:55:37.147Z,99495.03
2022-09-28T20:00:38.550Z,99489.88
2022-09-28T20:05:41.404Z,99500.25
2022-09-28T20:10:54.518Z,99507.97
2022-09-28T20:15:56.352Z,99502.97
2022-09-28T20:21:05.886Z,99511.75
2022-09-28T20:26:09.225Z,99510.94
2022-09-28T20:31:18.878Z,99516.19
2022-09-28T20:36:25.294Z,99477.84
2022-09-28T20:41:27.357Z,99514.53
2022-09-28T20:46:30.107Z,99504.34
2022-09-28T20:51:32.274Z,99500.84
2022-09-28T20:56:37.976Z,99512.00
2022-09-28T21:01:39.993Z,99508.63
2022-09-28T21:06:42.045Z,99521.41
2022-09-28T21:11:43.393Z,99503.50
2022-09-28T21:16:44.732Z,99512.03
2022-09-28T21:21:46.684Z,99503.50
2022-09-28T21:26:48.024Z,99505.13
2022-09-28T21:31:49.375Z,99516.22
2022-09-28T21:36:51.200Z,99533.25
2022-09-28T21:41:52.714Z,99533.34
2022-09-28T21:46:54.045Z,99526.59
2022-09-28T21:51:55.488Z,99524.00
2022-09-28T21:56:56.827Z,99533.47
2022-09-28T22:01:58.211Z,99539.56
2022-09-28T22:06:59.650Z,99529.44
2022-09-28T22:12:01.234Z,99545.72
2022-09-28T22:17:02.477Z,99545.81
2022-09-28T22:22:03.821Z,99521.06
2022-09-28T22:27:05.139Z,99545.91
2022-09-28T22:32:07.449Z,99549.41
2022-09-28T22:37:08.865Z,99553.75
2022-09-28T22:42:10.210Z,99546.84
2022-09-28T22:47:11.653Z,99540.91
2022-09-28T22:52:13.012Z,99547.81
2022-09-28T22:57:15.523Z,99550.50
2022-09-28T23:02:16.893Z,99554.84
2022-09-28T23:07:18.219Z,99538.69
2022-09-28T23:12:19.528Z,99549.84
2022-09-28T23:17:20.912Z,99551.50
2022-09-28T23:22:22.325Z,99555.84
2022-09-28T23:27:23.647Z,99519.22
2022-09-28T23:32:27.524Z,99563.59
2022-09-28T23:37:32.527Z,99563.59
2022-09-28T23:42:34.843Z,99557.63
2022-09-28T23:47:37.299Z,99554.22
2022-09-28T23:52:38.677Z,99543.13
2022-09-28T23:57:42.559Z,99552.59
